createdAt,value
2022-10-02T00:00:02.376Z,0.50
2022-10-02T00:01:28.503Z,0.63
2022-10-02T00:02:36.183Z,0.70
2022-10-02T00:03:42.297Z,0.75
2022-10-02T00:04:52.158Z,0.70
2022-10-02T00:06:03.801Z,1.10
2022-10-02T00:07:08.589Z,0.80
2022-10-02T00:08:14.559Z,0.73
2022-10-02T00:09:26.008Z,0.77
2022-10-02T00:10:44.738Z,0.90
2022-10-02T00:11:51.322Z,0.90
2022-10-02T00:13:04.483Z,1.10
2022-10-02T00:14:16.715Z,0.90
2022-10-02T00:15:23.378Z,0.73
2022-10-02T00:16:36.421Z,0.80
2022-10-02T00:17:43.203Z,0.85
2022-10-02T00:18:46.713Z,0.80
2022-10-02T00:19:54.199Z,0.75
2022-10-02T00:21:02.920Z,0.60
2022-10-02T00:22:40.922Z,1.20
2022-10-02T00:23:46.330Z,0.65
2022-10-02T00:24:56.672Z,0.70
2022-10-02T00:26:05.228Z,0.63
2022-10-02T00:27:19.054Z,0.93
2022-10-02T00:28:27.717Z,1.00
2022-10-02T00:29:46.158Z,0.88
2022-10-02T00:31:05.808Z,0.63
2022-10-02T00:32:21.244Z,0.85
2022-10-02T00:33:32.744Z,0.60
2022-10-02T00:34:45.950Z,0.60
2022-10-02T00:36:00.911Z,0.70
2022-10-02T00:37:14.433Z,0.60
2022-10-02T00:38:29.689Z,0.93
2022-10-02T00:39:46.727Z,0.80
2022-10-02T00:41:20.450Z,0.70
2022-10-02T00:43:03.746Z,0.80
2022-10-02T00:44:39.320Z,0.80
2022-10-02T00:46:24.180Z,0.80
2022-10-02T00:47:42.570Z,0.73
2022-10-02T00:48:52.037Z,0.55
2022-10-02T00:50:04.122Z,0.70
2022-10-02T00:51:23.643Z,0.95
2022-10-02T00:52:46.473Z,0.60
2022-10-02T00:54:02.329Z,0.90
2022-10-02T00:55:23.157Z,0.77
2022-10-02T00:56:32.015Z,0.73
2022-10-02T00:57:50.606Z,0.90
2022-10-02T00:59:09.092Z,0.80
2022-10-02T01:00:13.703Z,0.93
2022-10-02T01:01:20.443Z,1.30
2022-10-02T01:02:44.039Z,0.80
2022-10-02T01:03:53.291Z,0.73
2022-10-02T01:04:55.143Z,1.13
2022-10-02T01:05:58.058Z,0.60
2022-10-02T01:07:00.706Z,0.93
2022-10-02T01:08:03.555Z,0.93
2022-10-02T01:09:05.995Z,1.02
2022-10-02T01:10:10.234Z,0.90
2022-10-02T01:11:13.712Z,1.85
2022-10-02T01:12:16.821Z,0.70
2022-10-02T01:13:18.760Z,0.80
2022-10-02T01:14:21.845Z,0.65
2022-10-02T01:15:29.805Z,0.60
2022-10-02T01:16:34.007Z,0.57
2022-10-02T01:17:36.063Z,0.65
2022-10-02T01:18:40.207Z,0.52
2022-10-02T01:19:42.898Z,0.88
2022-10-02T01:20:49.550Z,1.23
2022-10-02T01:21:56.974Z,0.80
2022-10-02T01:23:09.322Z,0.93
2022-10-02T01:24:20.502Z,0.70
2022-10-02T01:25:23.895Z,0.70
2022-10-02T01:26:26.796Z,0.80
2022-10-02T01:27:28.566Z,0.80
2022-10-02T01:28:31.620Z,0.80
2022-10-02T01:29:33.467Z,0.90
2022-10-02T01:30:39.721Z,0.60
2022-10-02T01:31:42.615Z,0.73
2022-10-02T01:32:50.815Z,0.60
2022-10-02T01:33:53.856Z,0.55
2022-10-02T01:34:56.575Z,1.23
2022-10-02T01:35:59.475Z,0.70
2022-10-02T01:37:01.497Z,0.70
2022-10-02T01:38:08.757Z,0.50
2022-10-02T01:39:11.376Z,0.50
2022-10-02T01:40:27.302Z,0.65
2022-10-02T01:41:29.417Z,0.98
2022-10-02T01:42:32.994Z,0.80
2022-10-02T01:43:37.621Z,0.82
2022-10-02T01:44:40.590Z,0.55
2022-10-02T01:46:01.137Z,0.70
2022-10-02T01:47:08.977Z,0.60
2022-10-02T01:48:16.907Z,0.60
2022-10-02T01:49:36.758Z,1.63
2022-10-02T01:50:48.025Z,0.70
2022-10-02T01:52:09.572Z,0.60
2022-10-02T01:53:19.462Z,0.77
2022-10-02T01:54:34.748Z,0.80
2022-10-02T01:55:46.610Z,0.80
2022-10-02T01:56:55.784Z,0.85
2022-10-02T01:58:11.593Z,0.60
2022-10-02T01:59:24.072Z,0.70
2022-10-02T02:00:29.552Z,0.80
2022-10-02T02:01:42.011Z,1.10
2022-10-02T02:02:52.934Z,1.60
2022-10-02T02:04:03.698Z,0.60
2022-10-02T02:05:12.470Z,0.77
2022-10-02T02:06:24.703Z,0.82
2022-10-02T02:07:35.499Z,0.70
2022-10-02T02:08:47.793Z,0.80
2022-10-02T02:09:58.942Z,0.80
2022-10-02T02:11:12.500Z,1.10
2022-10-02T02:12:21.780Z,0.65
2022-10-02T02:13:31.010Z,0.98
2022-10-02T02:14:36.721Z,0.95
2022-10-02T02:15:44.600Z,1.00
2022-10-02T02:16:50.322Z,1.05
2022-10-02T02:17:58.963Z,0.63
2022-10-02T02:19:05.456Z,0.70
2022-10-02T02:20:14.464Z,0.70
2022-10-02T02:21:22.727Z,0.75
2022-10-02T02:22:29.806Z,0.75
2022-10-02T02:23:36.182Z,0.75
2022-10-02T02:24:45.619Z,0.50
2022-10-02T02:25:52.320Z,1.50
2022-10-02T02:27:00.161Z,0.60
2022-10-02T02:28:08.304Z,0.85
2022-10-02T02:29:13.806Z,1.55
2022-10-02T02:30:17.656Z,0.90
2022-10-02T02:31:24.880Z,0.70
2022-10-02T02:32:30.689Z,0.68
2022-10-02T02:33:39.906Z,0.60
2022-10-02T02:34:47.372Z,0.90
2022-10-02T02:35:55.115Z,0.90
2022-10-02T02:37:02.956Z,0.80
2022-10-02T02:38:08.644Z,0.70
2022-10-02T02:39:16.022Z,0.65
2022-10-02T02:40:22.472Z,0.70
2022-10-02T02:41:29.012Z,0.80
2022-10-02T02:42:36.739Z,1.00
2022-10-02T02:43:45.489Z,0.82
2022-10-02T02:44:53.015Z,0.68
2022-10-02T02:45:57.956Z,1.23
2022-10-02T02:47:06.476Z,0.90
2022-10-02T02:48:15.862Z,0.95
2022-10-02T02:49:17.949Z,0.70
2022-10-02T02:50:26.141Z,0.80
2022-10-02T02:51:34.289Z,0.80
2022-10-02T02:52:41.697Z,1.10
2022-10-02T02:53:47.172Z,0.90
2022-10-02T02:54:54.828Z,0.75
2022-10-02T02:55:59.590Z,0.70
2022-10-02T02:57:05.926Z,0.90
2022-10-02T02:58:16.233Z,0.80
2022-10-02T02:59:21.697Z,1.00
2022-10-02T03:00:24.909Z,1.00
2022-10-02T03:01:27.907Z,1.35
2022-10-02T03:02:29.932Z,0.80
2022-10-02T03:03:33.623Z,0.90
2022-10-02T03:04:35.568Z,0.77
2022-10-02T03:05:44.025Z,0.90
2022-10-02T03:06:49.512Z,0.90
2022-10-02T03:07:55.013Z,0.73
2022-10-02T03:08:58.195Z,0.82
2022-10-02T03:10:09.795Z,1.40
2022-10-02T03:11:23.013Z,0.77
2022-10-02T03:12:45.329Z,1.00
2022-10-02T03:14:01.024Z,0.88
2022-10-02T03:15:24.810Z,0.98
2022-10-02T03:16:41.620Z,1.83
2022-10-02T03:18:03.193Z,0.82
2022-10-02T03:19:24.322Z,0.60
2022-10-02T03:20:32.526Z,0.70
2022-10-02T03:21:42.704Z,0.70
2022-10-02T03:22:53.550Z,1.00
2022-10-02T03:24:03.656Z,0.80
2022-10-02T03:25:14.239Z,1.10
2022-10-02T03:26:21.277Z,0.90
2022-10-02T03:27:34.718Z,0.90
2022-10-02T03:28:55.542Z,0.80
2022-10-02T03:30:04.961Z,0.90
2022-10-02T03:31:09.741Z,0.80
2022-10-02T03:32:15.348Z,1.60
2022-10-02T03:33:17.580Z,1.00
2022-10-02T03:34:20.713Z,0.98
2022-10-02T03:35:23.966Z,1.00
2022-10-02T03:36:27.559Z,0.80
2022-10-02T03:37:29.628Z,0.75
2022-10-02T03:38:34.128Z,1.13
2022-10-02T03:39:40.335Z,0.90
2022-10-02T03:40:43.164Z,0.75
2022-10-02T03:41:45.832Z,1.00
2022-10-02T03:42:48.709Z,0.95
2022-10-02T03:43:50.614Z,0.80
2022-10-02T03:44:53.547Z,0.88
2022-10-02T03:45:57.420Z,0.95
2022-10-02T03:47:00.242Z,0.98
2022-10-02T03:48:02.150Z,1.95
2022-10-02T03:49:04.905Z,0.88
2022-10-02T03:50:07.650Z,0.93
2022-10-02T03:51:10.456Z,0.85
2022-10-02T03:52:15.470Z,0.77
2022-10-02T03:53:19.810Z,1.30
2022-10-02T03:54:22.737Z,1.45
2022-10-02T03:55:33.549Z,0.90
2022-10-02T03:56:41.486Z,0.80
2022-10-02T03:57:46.105Z,0.82
2022-10-02T03:58:53.109Z,1.45
2022-10-02T04:00:01.508Z,1.00
2022-10-02T04:01:10.813Z,1.10
2022-10-02T04:02:22.119Z,0.70
2022-10-02T04:03:29.281Z,0.90
2022-10-02T04:04:41.192Z,0.70
2022-10-02T04:05:48.234Z,1.00
2022-10-02T04:06:56.931Z,0.82
2022-10-02T04:08:02.836Z,0.80
2022-10-02T04:09:12.671Z,1.42
2022-10-02T04:10:41.638Z,0.50
2022-10-02T04:11:48.362Z,0.73
2022-10-02T04:12:56.335Z,0.80
2022-10-02T04:14:06.544Z,1.08
2022-10-02T04:15:19.055Z,0.60
2022-10-02T04:16:30.816Z,0.80
2022-10-02T04:17:43.940Z,2.13
2022-10-02T04:18:54.633Z,0.77
2022-10-02T04:19:59.652Z,1.00
2022-10-02T04:21:10.886Z,0.75
2022-10-02T04:22:31.831Z,0.75
2022-10-02T04:23:38.673Z,1.30
2022-10-02T04:24:47.588Z,0.85
2022-10-02T04:25:56.915Z,1.05
2022-10-02T04:27:05.756Z,0.90
2022-10-02T04:28:15.099Z,1.10
2022-10-02T04:29:24.228Z,0.90
2022-10-02T04:30:27.207Z,0.90
2022-10-02T04:31:30.443Z,0.90
2022-10-02T04:32:36.143Z,0.77
2022-10-02T04:33:38.594Z,1.00
2022-10-02T04:34:42.351Z,0.50
2022-10-02T04:35:56.982Z,0.80
2022-10-02T04:37:18.035Z,1.00
2022-10-02T04:38:36.823Z,0.77
2022-10-02T04:39:55.221Z,1.00
2022-10-02T04:41:18.166Z,0.60
2022-10-02T04:42:32.512Z,0.70
2022-10-02T04:43:45.105Z,0.82
2022-10-02T04:45:03.304Z,0.73
2022-10-02T04:46:16.004Z,1.00
2022-10-02T04:47:41.258Z,0.70
2022-10-02T04:49:06.442Z,1.00
2022-10-02T04:50:29.643Z,0.80
2022-10-02T04:51:52.564Z,0.82
2022-10-02T04:53:17.386Z,1.88
2022-10-02T04:55:04.958Z,0.80
2022-10-02T04:56:27.051Z,0.70
2022-10-02T04:57:48.770Z,0.60
2022-10-02T04:59:03.352Z,0.70
2022-10-02T05:00:10.848Z,1.50
2022-10-02T05:01:25.164Z,0.80
2022-10-02T05:02:40.462Z,0.75
2022-10-02T05:04:03.258Z,0.57
2022-10-02T05:05:23.569Z,1.10
2022-10-02T05:06:42.486Z,0.90
2022-10-02T05:08:02.936Z,1.23
2022-10-02T05:09:14.952Z,1.00
2022-10-02T05:10:36.300Z,0.98
2022-10-02T05:11:58.192Z,1.00
2022-10-02T05:13:11.897Z,0.70
2022-10-02T05:14:34.823Z,0.90
2022-10-02T05:15:53.830Z,0.70
2022-10-02T05:17:07.389Z,0.73
2022-10-02T05:18:35.596Z,0.93
2022-10-02T05:20:12.219Z,0.70
2022-10-02T05:21:38.760Z,0.95
2022-10-02T05:23:03.772Z,0.98
2022-10-02T05:24:22.456Z,0.90
2022-10-02T05:26:03.598Z,1.30
2022-10-02T05:27:16.250Z,0.90
2022-10-02T05:28:35.125Z,0.80
2022-10-02T05:29:53.327Z,0.85
2022-10-02T05:31:05.872Z,0.82
2022-10-02T05:32:28.952Z,1.00
2022-10-02T05:33:49.669Z,1.08
2022-10-02T05:35:16.204Z,1.10
2022-10-02T05:36:30.018Z,1.20
2022-10-02T05:37:52.243Z,0.95
2022-10-02T05:39:03.058Z,0.98
2022-10-02T05:40:16.955Z,0.90
2022-10-02T05:41:26.738Z,1.10
2022-10-02T05:42:39.058Z,0.70
2022-10-02T05:43:48.598Z,0.70
2022-10-02T05:44:55.668Z,0.80
2022-10-02T05:46:03.392Z,0.85
2022-10-02T05:47:13.675Z,1.15
2022-10-02T05:48:18.847Z,1.02
2022-10-02T05:49:28.082Z,0.85
2022-10-02T05:50:33.656Z,1.20
2022-10-02T05:51:45.155Z,0.90
2022-10-02T05:52:54.920Z,1.27
2022-10-02T05:54:01.339Z,1.48
2022-10-02T05:55:14.415Z,1.40
2022-10-02T05:56:22.608Z,0.75
2022-10-02T05:57:32.135Z,1.00
2022-10-02T05:58:38.797Z,1.27
2022-10-02T05:59:49.143Z,0.80
2022-10-02T06:00:57.128Z,1.30
2022-10-02T06:02:09.557Z,0.95
2022-10-02T06:03:20.666Z,1.00
2022-10-02T06:04:30.895Z,0.82
2022-10-02T06:05:47.186Z,1.40
2022-10-02T06:06:51.608Z,1.60
2022-10-02T06:07:59.651Z,0.98
2022-10-02T06:09:09.034Z,1.02
2022-10-02T06:10:17.068Z,1.15
2022-10-02T06:11:24.309Z,1.10
2022-10-02T06:12:31.248Z,1.02
2022-10-02T06:13:41.654Z,1.55
2022-10-02T06:14:50.982Z,1.10
2022-10-02T06:16:04.230Z,1.10
2022-10-02T06:17:12.462Z,1.00
2022-10-02T06:18:20.780Z,0.93
2022-10-02T06:19:28.834Z,1.02
2022-10-02T06:20:35.746Z,1.25
2022-10-02T06:21:51.330Z,1.50
2022-10-02T06:22:59.584Z,0.95
2022-10-02T06:24:07.349Z,1.10
2022-10-02T06:25:17.524Z,1.10
2022-10-02T06:26:27.137Z,0.90
2022-10-02T06:27:38.087Z,1.20
2022-10-02T06:28:44.048Z,1.35
2022-10-02T06:29:51.786Z,1.10
2022-10-02T06:31:01.282Z,1.33
2022-10-02T06:32:19.169Z,1.13
2022-10-02T06:33:24.840Z,1.40
2022-10-02T06:34:29.573Z,1.25
2022-10-02T06:35:51.692Z,1.27
2022-10-02T06:37:12.756Z,1.40
2022-10-02T06:38:37.087Z,1.10
2022-10-02T06:40:14.317Z,1.50
2022-10-02T06:41:28.620Z,1.02
2022-10-02T06:42:44.256Z,1.25
2022-10-02T06:44:00.959Z,1.00
2022-10-02T06:45:10.732Z,1.35
2022-10-02T06:46:23.817Z,1.00
2022-10-02T06:47:41.105Z,1.27
2022-10-02T06:48:49.544Z,1.10
2022-10-02T06:50:15.758Z,1.05
2022-10-02T06:51:25.532Z,1.30
2022-10-02T06:52:38.800Z,1.35
2022-10-02T06:54:08.496Z,1.55
2022-10-02T06:55:32.149Z,1.80
2022-10-02T06:56:52.712Z,1.80
2022-10-02T06:58:12.677Z,1.80
2022-10-02T06:59:38.262Z,1.70
2022-10-02T07:00:47.615Z,1.77
2022-10-02T07:01:57.914Z,1.55
2022-10-02T07:03:24.080Z,1.50
2022-10-02T07:04:41.523Z,1.33
2022-10-02T07:05:56.794Z,1.50
2022-10-02T07:07:14.945Z,2.00
2022-10-02T07:08:27.423Z,1.55
2022-10-02T07:09:57.132Z,1.05
2022-10-02T07:11:06.667Z,1.27
2022-10-02T07:12:21.919Z,1.30
2022-10-02T07:13:43.888Z,1.15
2022-10-02T07:15:02.868Z,1.27
2022-10-02T07:16:17.855Z,1.15
2022-10-02T07:17:44.519Z,1.80
2022-10-02T07:19:00.776Z,1.10
2022-10-02T07:20:19.341Z,1.00
2022-10-02T07:21:39.392Z,0.90
2022-10-02T07:22:56.307Z,1.38
2022-10-02T07:24:10.806Z,0.73
2022-10-02T07:25:44.353Z,1.63
2022-10-02T07:26:51.152Z,1.40
2022-10-02T07:28:04.037Z,0.95
2022-10-02T07:29:21.257Z,1.02
2022-10-02T07:30:23.102Z,0.88
2022-10-02T07:31:37.150Z,1.42
2022-10-02T07:32:49.206Z,1.10
2022-10-02T07:34:06.513Z,3.05
2022-10-02T07:35:26.147Z,1.42
2022-10-02T07:36:42.510Z,2.65
2022-10-02T07:37:55.327Z,1.17
2022-10-02T07:39:21.284Z,1.08
2022-10-02T07:40:35.371Z,1.50
2022-10-02T07:42:14.568Z,1.42
2022-10-02T07:43:34.514Z,1.30
2022-10-02T07:45:20.407Z,1.20
2022-10-02T07:46:37.181Z,1.10
2022-10-02T07:47:53.357Z,1.75
2022-10-02T07:49:26.176Z,1.10
2022-10-02T07:50:35.752Z,1.35
2022-10-02T07:51:51.703Z,1.02
2022-10-02T07:53:04.853Z,1.05
2022-10-02T07:54:20.709Z,1.23
2022-10-02T07:55:24.619Z,1.60
2022-10-02T07:56:27.467Z,1.40
2022-10-02T07:57:38.385Z,1.15
2022-10-02T07:58:44.859Z,1.30
2022-10-02T07:59:48.985Z,1.35
2022-10-02T08:00:55.638Z,1.40
2022-10-02T08:01:59.412Z,1.25
2022-10-02T08:03:29.203Z,1.60
2022-10-02T08:04:37.514Z,1.65
2022-10-02T08:05:43.863Z,1.90
2022-10-02T08:06:48.123Z,1.60
2022-10-02T08:07:55.262Z,1.90
2022-10-02T08:09:02.228Z,1.30
2022-10-02T08:10:11.409Z,1.52
2022-10-02T08:11:18.191Z,1.83
2022-10-02T08:12:28.180Z,2.08
2022-10-02T08:13:37.201Z,1.58
2022-10-02T08:14:41.652Z,1.23
2022-10-02T08:15:47.783Z,1.55
2022-10-02T08:16:52.085Z,1.00
2022-10-02T08:18:10.792Z,0.90
2022-10-02T08:19:26.708Z,2.03
2022-10-02T08:20:33.936Z,1.20
2022-10-02T08:21:43.234Z,1.10
2022-10-02T08:22:50.908Z,1.30
2022-10-02T08:24:00.434Z,0.93
2022-10-02T08:25:07.631Z,1.30
2022-10-02T08:26:15.506Z,1.50
2022-10-02T08:27:22.485Z,1.13
2022-10-02T08:28:31.327Z,1.10
2022-10-02T08:29:42.247Z,1.30
2022-10-02T08:30:45.059Z,1.05
2022-10-02T08:31:47.183Z,1.30
2022-10-02T08:32:50.173Z,1.55
2022-10-02T08:33:52.981Z,1.40
2022-10-02T08:34:58.015Z,0.90
2022-10-02T08:36:32.673Z,1.15
2022-10-02T08:37:44.831Z,1.10
2022-10-02T08:38:54.653Z,0.90
2022-10-02T08:40:30.066Z,1.50
2022-10-02T08:41:54.332Z,2.58
2022-10-02T08:43:33.654Z,1.05
2022-10-02T08:45:12.526Z,0.80
2022-10-02T08:46:48.683Z,1.20
2022-10-02T08:48:31.654Z,1.48
2022-10-02T08:49:53.513Z,1.33
2022-10-02T08:51:44.175Z,1.40
2022-10-02T08:53:16.732Z,1.40
2022-10-02T08:54:50.496Z,1.08
2022-10-02T08:56:27.683Z,1.55
2022-10-02T08:57:55.474Z,1.30
2022-10-02T08:59:19.012Z,1.65
2022-10-02T09:00:24.835Z,1.23
2022-10-02T09:02:14.787Z,1.48
2022-10-02T09:03:45.710Z,1.42
2022-10-02T09:05:12.950Z,1.63
2022-10-02T09:06:54.741Z,1.10
2022-10-02T09:08:22.701Z,1.13
2022-10-02T09:09:59.901Z,1.70
2022-10-02T09:11:45.014Z,1.23
2022-10-02T09:13:18.116Z,1.17
2022-10-02T09:14:44.463Z,1.30
2022-10-02T09:15:48.119Z,1.65
2022-10-02T09:17:24.985Z,1.35
2022-10-02T09:18:47.396Z,0.85
2022-10-02T09:20:06.114Z,1.30
2022-10-02T09:21:19.951Z,1.83
2022-10-02T09:23:07.447Z,1.20
2022-10-02T09:24:52.619Z,1.40
2022-10-02T09:26:03.803Z,0.93
2022-10-02T09:27:45.213Z,1.00
2022-10-02T09:29:20.455Z,1.27
2022-10-02T09:30:50.187Z,1.50
2022-10-02T09:32:35.494Z,1.20
2022-10-02T09:34:04.393Z,1.17
2022-10-02T09:35:33.999Z,1.65
2022-10-02T09:36:57.316Z,0.93
2022-10-02T09:38:30.024Z,1.50
2022-10-02T09:40:02.367Z,1.00
2022-10-02T09:41:48.066Z,1.27
2022-10-02T09:43:22.528Z,1.30
2022-10-02T09:45:01.964Z,1.40
2022-10-02T09:46:30.909Z,1.10
2022-10-02T09:48:08.640Z,1.30
2022-10-02T09:49:42.340Z,0.98
2022-10-02T09:51:27.582Z,1.40
2022-10-02T09:53:02.045Z,1.63
2022-10-02T09:54:27.720Z,1.27
2022-10-02T09:56:02.807Z,1.80
2022-10-02T09:57:44.404Z,1.17
2022-10-02T09:59:12.616Z,1.40
2022-10-02T10:00:21.024Z,1.40
2022-10-02T10:01:36.420Z,1.25
2022-10-02T10:03:16.504Z,1.33
2022-10-02T10:05:04.407Z,1.55
2022-10-02T10:06:32.670Z,1.40
2022-10-02T10:08:12.764Z,1.60
2022-10-02T10:09:47.369Z,1.00
2022-10-02T10:11:21.370Z,0.98
2022-10-02T10:13:07.632Z,1.00
2022-10-02T10:15:01.882Z,1.98
2022-10-02T10:16:39.126Z,1.05
2022-10-02T10:18:20.480Z,1.20
2022-10-02T10:19:57.923Z,1.05
2022-10-02T10:21:27.966Z,0.77
2022-10-02T10:23:08.052Z,1.20
2022-10-02T10:24:40.726Z,0.95
2022-10-02T10:26:34.415Z,1.10
2022-10-02T10:28:12.678Z,0.82
2022-10-02T10:29:46.196Z,0.90
2022-10-02T10:31:39.739Z,0.57
2022-10-02T10:33:24.304Z,1.20
2022-10-02T10:35:12.083Z,0.90
2022-10-02T10:37:25.948Z,1.38
2022-10-02T10:38:44.469Z,0.90
2022-10-02T10:40:38.631Z,0.80
2022-10-02T10:42:03.143Z,0.82
2022-10-02T10:43:27.834Z,0.95
2022-10-02T10:45:01.369Z,0.80
2022-10-02T10:46:25.632Z,0.80
2022-10-02T10:47:48.279Z,0.90
2022-10-02T10:49:15.668Z,0.63
2022-10-02T10:50:35.102Z,0.70
2022-10-02T10:51:45.775Z,0.55
2022-10-02T10:53:14.269Z,0.50
2022-10-02T10:54:52.985Z,0.80
2022-10-02T10:56:19.337Z,0.77
2022-10-02T10:57:35.261Z,0.88
2022-10-02T10:58:57.263Z,1.00
2022-10-02T11:00:16.016Z,0.80
2022-10-02T11:01:21.012Z,0.88
2022-10-02T11:02:54.561Z,0.60
2022-10-02T11:04:26.518Z,0.70
2022-10-02T11:06:17.652Z,0.80
2022-10-02T11:07:39.491Z,0.68
2022-10-02T11:09:29.622Z,0.82
2022-10-02T11:10:48.227Z,0.52
2022-10-02T11:12:13.828Z,0.82
2022-10-02T11:13:36.605Z,0.70
2022-10-02T11:14:53.850Z,0.70
2022-10-02T11:16:14.372Z,0.65
2022-10-02T11:17:46.431Z,0.60
2022-10-02T11:19:07.810Z,0.80
2022-10-02T11:20:50.553Z,0.60
2022-10-02T11:22:09.943Z,0.50
2022-10-02T11:23:35.089Z,0.50
2022-10-02T11:25:13.371Z,0.73
2022-10-02T11:26:27.658Z,0.70
2022-10-02T11:27:57.541Z,0.60
2022-10-02T11:29:22.702Z,1.33
2022-10-02T11:30:32.441Z,0.65
2022-10-02T11:32:00.918Z,0.68
2022-10-02T11:33:39.564Z,0.63
2022-10-02T11:34:58.380Z,1.23
2022-10-02T11:36:25.446Z,0.60
2022-10-02T11:37:42.321Z,0.55
2022-10-02T11:39:08.093Z,0.50
2022-10-02T11:40:35.181Z,0.60
2022-10-02T11:41:59.324Z,0.70
2022-10-02T11:43:32.326Z,0.50
2022-10-02T11:44:56.379Z,0.65
2022-10-02T11:46:21.536Z,0.50
2022-10-02T11:47:56.598Z,0.57
2022-10-02T11:49:30.938Z,0.90
2022-10-02T11:50:50.347Z,0.43
2022-10-02T11:52:20.785Z,0.57
2022-10-02T11:53:34.599Z,0.70
2022-10-02T11:54:50.589Z,0.60
2022-10-02T11:56:11.689Z,0.50
2022-10-02T11:57:29.169Z,0.60
2022-10-02T11:58:45.454Z,0.80
2022-10-02T12:00:06.314Z,0.65
2022-10-02T12:01:27.184Z,0.60
2022-10-02T12:02:39.022Z,0.70
2022-10-02T12:03:56.970Z,0.50
2022-10-02T12:05:21.300Z,0.40
2022-10-02T12:06:38.183Z,0.80
2022-10-02T12:07:46.038Z,0.50
2022-10-02T12:09:02.512Z,1.00
2022-10-02T12:10:19.284Z,0.80
2022-10-02T12:11:32.495Z,0.75
2022-10-02T12:12:51.577Z,0.70
2022-10-02T12:14:27.241Z,0.57
2022-10-02T12:15:36.332Z,0.60
2022-10-02T12:16:59.839Z,0.50
2022-10-02T12:18:22.008Z,0.77
2022-10-02T12:19:40.959Z,0.68
2022-10-02T12:21:14.552Z,0.50
2022-10-02T12:22:42.953Z,0.70
2022-10-02T12:24:09.521Z,0.50
2022-10-02T12:25:36.794Z,0.50
2022-10-02T12:27:04.289Z,0.70
2022-10-02T12:28:16.726Z,0.50
2022-10-02T12:29:29.155Z,0.60
2022-10-02T12:30:40.259Z,0.60
2022-10-02T12:31:51.503Z,0.65
2022-10-02T12:33:09.400Z,0.60
2022-10-02T12:34:35.400Z,0.70
2022-10-02T12:36:10.734Z,1.65
2022-10-02T12:37:23.246Z,0.70
2022-10-02T12:38:39.664Z,0.60
2022-10-02T12:39:51.476Z,0.40
2022-10-02T12:41:08.532Z,0.50
2022-10-02T12:42:32.506Z,0.65
2022-10-02T12:44:22.022Z,0.50
2022-10-02T12:45:43.953Z,0.60
2022-10-02T12:46:59.733Z,0.70
2022-10-02T12:48:16.003Z,0.70
2022-10-02T12:49:34.154Z,0.80
2022-10-02T12:51:30.406Z,0.88
2022-10-02T12:53:07.813Z,0.73
2022-10-02T12:54:43.940Z,0.45
2022-10-02T12:56:22.293Z,0.47
2022-10-02T12:57:53.093Z,0.50
2022-10-02T12:59:06.170Z,0.60
2022-10-02T13:00:14.867Z,0.60
2022-10-02T13:01:53.190Z,0.57
2022-10-02T13:03:34.999Z,0.75
2022-10-02T13:05:18.525Z,0.98
2022-10-02T13:06:47.931Z,0.60
2022-10-02T13:08:16.006Z,11.70
2022-10-02T13:09:30.089Z,8.85
2022-10-02T13:10:40.599Z,20.73
2022-10-02T13:11:59.860Z,8.15
2022-10-02T13:13:17.529Z,2.38
2022-10-02T13:14:37.518Z,1.60
2022-10-02T13:15:48.108Z,0.98
2022-10-02T13:17:10.341Z,0.73
2022-10-02T13:18:33.789Z,0.82
2022-10-02T13:19:49.492Z,0.90
2022-10-02T13:21:06.087Z,0.60
2022-10-02T13:22:14.570Z,0.50
2022-10-02T13:23:26.640Z,1.50
2022-10-02T13:24:48.641Z,2.10
2022-10-02T13:26:06.667Z,2.22
2022-10-02T13:27:26.344Z,2.80
2022-10-02T13:28:51.340Z,3.13
2022-10-02T13:30:06.836Z,2.50
2022-10-02T13:31:19.266Z,2.30
2022-10-02T13:33:00.417Z,2.25
2022-10-02T13:34:15.243Z,2.30
2022-10-02T13:35:47.016Z,1.85
2022-10-02T13:37:04.712Z,2.40
2022-10-02T13:38:28.432Z,2.10
2022-10-02T13:40:00.631Z,1.85
2022-10-02T13:41:15.135Z,1.83
2022-10-02T13:42:29.098Z,1.90
2022-10-02T13:43:58.252Z,1.42
2022-10-02T13:45:08.427Z,1.20
2022-10-02T13:46:23.982Z,1.23
2022-10-02T13:47:47.641Z,1.13
2022-10-02T13:49:02.526Z,1.10
2022-10-02T13:50:26.669Z,1.00
2022-10-02T13:51:36.963Z,1.17
2022-10-02T13:52:54.066Z,1.52
2022-10-02T13:54:29.818Z,1.23
2022-10-02T13:55:35.564Z,1.15
2022-10-02T13:56:50.160Z,1.33
2022-10-02T13:58:16.631Z,1.10
2022-10-02T13:59:31.853Z,1.20
2022-10-02T14:01:02.875Z,1.10
2022-10-02T14:02:20.926Z,1.15
2022-10-02T14:03:34.196Z,1.30
2022-10-02T14:04:50.905Z,1.50
2022-10-02T14:06:01.261Z,1.30
2022-10-02T14:07:19.139Z,1.65
2022-10-02T14:08:43.492Z,1.27
2022-10-02T14:09:58.324Z,1.25
2022-10-02T14:11:15.760Z,1.67
2022-10-02T14:12:30.153Z,1.40
2022-10-02T14:13:45.888Z,1.55
2022-10-02T14:15:04.053Z,1.35
2022-10-02T14:16:20.609Z,0.90
2022-10-02T14:17:35.012Z,1.10
2022-10-02T14:19:04.133Z,0.93
2022-10-02T14:20:32.821Z,1.10
2022-10-02T14:21:39.694Z,1.15
2022-10-02T14:22:56.239Z,1.10
2022-10-02T14:24:43.226Z,0.82
2022-10-02T14:25:57.655Z,1.00
2022-10-02T14:27:08.880Z,0.90
2022-10-02T14:28:36.617Z,0.88
2022-10-02T14:29:50.762Z,1.00
2022-10-02T14:31:29.185Z,1.10
2022-10-02T14:32:48.760Z,0.93
2022-10-02T14:34:13.943Z,0.95
2022-10-02T14:35:36.935Z,1.05
2022-10-02T14:36:47.296Z,0.70
2022-10-02T14:38:08.460Z,0.90
2022-10-02T14:39:28.805Z,1.17
2022-10-02T14:40:43.413Z,1.00
2022-10-02T14:42:09.612Z,1.00
2022-10-02T14:43:33.619Z,0.80
2022-10-02T14:45:03.290Z,1.00
2022-10-02T14:46:19.143Z,1.17
2022-10-02T14:47:41.747Z,1.30
2022-10-02T14:49:10.465Z,0.73
2022-10-02T14:50:34.068Z,0.95
2022-10-02T14:51:59.207Z,1.00
2022-10-02T14:53:17.602Z,0.70
2022-10-02T14:54:34.763Z,0.95
2022-10-02T14:56:08.214Z,0.70
2022-10-02T14:57:28.329Z,0.90
2022-10-02T14:58:43.875Z,1.15
2022-10-02T15:00:09.494Z,0.70
2022-10-02T15:01:21.379Z,0.65
2022-10-02T15:02:58.613Z,0.95
2022-10-02T15:04:28.642Z,0.90
2022-10-02T15:05:48.952Z,0.95
2022-10-02T15:07:01.682Z,0.68
2022-10-02T15:08:13.725Z,0.85
2022-10-02T15:09:21.670Z,0.70
2022-10-02T15:10:28.081Z,0.75
2022-10-02T15:11:59.933Z,0.70
2022-10-02T15:13:10.416Z,0.90
2022-10-02T15:14:19.664Z,1.10
2022-10-02T15:15:28.647Z,0.60
2022-10-02T15:16:59.301Z,0.85
2022-10-02T15:18:21.014Z,0.90
2022-10-02T15:19:31.828Z,0.90
2022-10-02T15:20:40.494Z,0.95
2022-10-02T15:21:48.187Z,1.00
2022-10-02T15:22:57.974Z,0.95
2022-10-02T15:24:31.089Z,1.00
2022-10-02T15:25:55.623Z,0.63
2022-10-02T15:27:09.496Z,0.75
2022-10-02T15:28:36.209Z,1.27
2022-10-02T15:29:54.140Z,0.95
2022-10-02T15:31:03.056Z,1.10
2022-10-02T15:32:34.625Z,1.23
2022-10-02T15:33:43.631Z,1.02
2022-10-02T15:34:53.896Z,0.88
2022-10-02T15:36:11.277Z,1.05
2022-10-02T15:37:25.523Z,1.17
2022-10-02T15:38:47.891Z,0.82
2022-10-02T15:40:11.901Z,0.90
2022-10-02T15:41:32.055Z,0.70
2022-10-02T15:42:56.158Z,0.90
2022-10-02T15:44:16.715Z,1.15
2022-10-02T15:45:35.929Z,2.58
2022-10-02T15:46:52.900Z,3.53
2022-10-02T15:48:20.282Z,2.60
2022-10-02T15:49:40.333Z,1.63
2022-10-02T15:50:51.898Z,2.60
2022-10-02T15:52:05.117Z,1.55
2022-10-02T15:53:32.591Z,1.60
2022-10-02T15:54:49.021Z,1.30
2022-10-02T15:56:00.607Z,1.30
2022-10-02T15:57:22.071Z,1.10
2022-10-02T15:58:38.058Z,2.42
2022-10-02T16:00:04.653Z,1.73
2022-10-02T16:01:31.792Z,1.20
2022-10-02T16:02:49.400Z,1.10
2022-10-02T16:03:54.205Z,1.45
2022-10-02T16:05:15.295Z,1.33
2022-10-02T16:06:29.936Z,0.90
2022-10-02T16:07:58.156Z,1.15
2022-10-02T16:09:22.825Z,1.20
2022-10-02T16:10:26.730Z,1.00
2022-10-02T16:11:50.616Z,1.20
2022-10-02T16:13:18.610Z,1.27
2022-10-02T16:14:31.216Z,1.10
2022-10-02T16:15:48.779Z,1.10
2022-10-02T16:17:13.398Z,1.30
2022-10-02T16:18:35.400Z,1.48
2022-10-02T16:19:58.634Z,1.20
2022-10-02T16:21:39.090Z,1.20
2022-10-02T16:22:58.663Z,1.02
2022-10-02T16:24:33.877Z,1.25
2022-10-02T16:25:56.605Z,1.48
2022-10-02T16:27:17.912Z,1.30
2022-10-02T16:28:36.507Z,1.48
2022-10-02T16:29:49.766Z,1.55
2022-10-02T16:31:17.432Z,1.35
2022-10-02T16:32:31.075Z,1.38
2022-10-02T16:33:51.042Z,0.90
2022-10-02T16:35:16.558Z,1.30
2022-10-02T16:36:31.874Z,1.30
2022-10-02T16:37:45.217Z,1.58
2022-10-02T16:38:49.804Z,1.50
2022-10-02T16:40:00.590Z,1.45
2022-10-02T16:41:18.901Z,1.77
2022-10-02T16:42:29.865Z,1.63
2022-10-02T16:43:58.879Z,1.45
2022-10-02T16:45:18.095Z,1.48
2022-10-02T16:46:25.145Z,0.93
2022-10-02T16:47:34.387Z,1.30
2022-10-02T16:48:48.110Z,1.40
2022-10-02T16:49:57.329Z,1.67
2022-10-02T16:51:15.464Z,1.80
2022-10-02T16:52:24.523Z,1.25
2022-10-02T16:53:32.985Z,1.02
2022-10-02T16:54:44.937Z,1.10
2022-10-02T16:55:58.242Z,1.33
2022-10-02T16:57:05.486Z,1.23
2022-10-02T16:58:22.219Z,1.10
2022-10-02T16:59:27.778Z,1.40
2022-10-02T17:00:35.167Z,1.13
2022-10-02T17:02:05.881Z,1.55
2022-10-02T17:03:20.719Z,1.05
2022-10-02T17:04:38.952Z,1.08
2022-10-02T17:05:49.658Z,1.08
2022-10-02T17:06:58.253Z,1.20